Time;durP1;ratioP1;P1;durP2;ratioP2;P2;SDS_P1;SDS_P2;PMS_P1;PMS_P2;Temp;Humidity;BMP_temperature;BMP_pressure;BME280_temperature;BME280_humidity;BME280_pressure;Samples;Min_cycle;Max_cycle;Signal;HPM_P1;HPM_P2
2022/12/18 00:01:06;;;;;;;75.43;20.67;;;;;;;;;;4803210;29;20050;-43
2022/12/18 00:03:33;;;;;;;61.83;19.00;;;;;;;;;;4803600;29;20081;-36
2022/12/18 00:05:59;;;;;;;77.40;23.80;;;;;;;;;;4799194;29;20047;-41
2022/12/18 00:08:26;;;;;;;69.15;21.00;;;;;;;;;;4802145;29;20059;-42
2022/12/18 00:10:52;;;;;;;80.90;22.20;;;;;;;;;;4802108;29;20058;-40
2022/12/18 00:13:25;;;;;;;69.60;21.23;;;;;;;;;;4802468;29;20099;-41
2022/12/18 00:15:53;;;;;;;68.97;20.20;;;;;;;;;;4802901;29;20282;-37
2022/12/18 00:18:22;;;;;;;73.95;20.80;;;;;;;;;;4801678;29;20054;-41
2022/12/18 00:20:48;;;;;;;90.72;22.48;;;;;;;;;;4801581;29;20042;-36
2022/12/18 00:23:15;;;;;;;82.57;21.23;;;;;;;;;;4802153;29;20055;-41
2022/12/18 00:25:41;;;;;;;91.45;21.08;;;;;;;;;;4801834;29;20046;-36
2022/12/18 00:28:07;;;;;;;69.65;20.10;;;;;;;;;;4802613;29;20442;-41
2022/12/18 00:30:34;;;;;;;63.70;21.05;;;;;;;;;;4786319;29;20390;-39
2022/12/18 00:33:00;;;;;;;70.13;19.55;;;;;;;;;;4785612;29;20054;-41
2022/12/18 00:35:27;;;;;;;67.82;21.80;;;;;;;;;;4785804;29;20568;-39
2022/12/18 00:37:53;;;;;;;71.47;20.77;;;;;;;;;;4802609;29;20050;-48
2022/12/18 00:40:22;;;;;;;86.63;21.83;;;;;;;;;;4785101;29;20500;-37
2022/12/18 00:42:57;;;;;;;85.32;20.92;;;;;;;;;;4786290;29;20046;-36
2022/12/18 00:45:29;;;;;;;82.35;19.67;;;;;;;;;;4785412;29;20051;-36
2022/12/18 00:47:56;;;;;;;66.15;19.20;;;;;;;;;;4798690;29;20055;-40
2022/12/18 00:50:23;;;;;;;62.85;17.77;;;;;;;;;;4800977;29;20130;-46
2022/12/18 00:52:50;;;;;;;85.90;22.15;;;;;;;;;;4801506;29;20095;-43
2022/12/18 00:55:17;;;;;;;102.45;21.92;;;;;;;;;;4801410;29;20046;-43
2022/12/18 00:57:45;;;;;;;64.95;19.30;;;;;;;;;;4802755;29;20090;-49
2022/12/18 01:00:13;;;;;;;74.53;21.35;;;;;;;;;;4799643;29;20051;-41
2022/12/18 01:02:41;;;;;;;72.25;19.80;;;;;;;;;;4784841;29;20537;-38
2022/12/18 01:05:08;;;;;;;72.60;19.70;;;;;;;;;;4801668;29;20043;-39
2022/12/18 01:07:34;;;;;;;79.13;21.10;;;;;;;;;;4785010;29;20054;-36
2022/12/18 01:10:02;;;;;;;63.33;19.60;;;;;;;;;;4802118;29;20074;-45
2022/12/18 01:12:29;;;;;;;66.68;19.63;;;;;;;;;;4785277;29;20121;-51
2022/12/18 01:14:55;;;;;;;70.35;19.42;;;;;;;;;;4801254;29;20055;-36
2022/12/18 01:17:22;;;;;;;84.97;21.23;;;;;;;;;;4784987;29;20050;-36
2022/12/18 01:19:48;;;;;;;81.10;20.77;;;;;;;;;;4785325;29;20051;-39
2022/12/18 01:22:15;;;;;;;90.65;22.80;;;;;;;;;;4801466;29;20046;-42
2022/12/18 01:24:43;;;;;;;73.93;19.75;;;;;;;;;;4801727;29;20407;-42
2022/12/18 01:27:10;;;;;;;71.25;21.48;;;;;;;;;;4800851;29;20061;-36
2022/12/18 01:29:38;;;;;;;85.28;21.95;;;;;;;;;;4784785;29;20074;-39
2022/12/18 01:32:05;;;;;;;69.53;21.65;;;;;;;;;;4781423;29;20051;-37
2022/12/18 01:34:31;;;;;;;70.68;20.73;;;;;;;;;;4798520;29;20047;-41
2022/12/18 01:36:58;;;;;;;81.07;21.45;;;;;;;;;;4801772;29;20051;-38
2022/12/18 01:39:25;;;;;;;62.75;19.35;;;;;;;;;;4784793;29;20416;-41
2022/12/18 01:42:03;;;;;;;64.15;18.67;;;;;;;;;;4800883;29;20179;-39
2022/12/18 01:44:49;;;;;;;72.03;20.73;;;;;;;;;;4781719;29;20071;-37
2022/12/18 01:47:27;;;;;;;84.90;22.35;;;;;;;;;;4801382;29;20057;-40
2022/12/18 01:49:54;;;;;;;65.55;19.65;;;;;;;;;;4797701;29;20053;-39
2022/12/18 01:52:21;;;;;;;76.63;20.15;;;;;;;;;;4784798;29;20149;-36
2022/12/18 01:54:49;;;;;;;91.95;24.23;;;;;;;;;;4785028;29;20054;-41
2022/12/18 01:57:15;;;;;;;84.85;20.83;;;;;;;;;;4800811;29;20408;-39
2022/12/18 01:59:42;;;;;;;75.18;20.90;;;;;;;;;;4781659;29;20057;-36
2022/12/18 02:02:09;;;;;;;69.47;20.25;;;;;;;;;;4787879;29;20069;-36
2022/12/18 02:04:36;;;;;;;79.63;20.80;;;;;;;;;;4804493;29;20047;-37
2022/12/18 02:07:14;;;;;;;74.28;21.80;;;;;;;;;;4788864;29;20057;-36
2022/12/18 02:09:46;;;;;;;81.07;21.60;;;;;;;;;;4804436;29;20700;-36
2022/12/18 02:12:30;;;;;;;77.25;21.40;;;;;;;;;;4787863;29;20078;-36
2022/12/18 02:15:02;;;;;;;84.00;21.92;;;;;;;;;;4784422;29;20063;-37
2022/12/18 02:17:52;;;;;;;68.40;22.15;;;;;;;;;;4788209;29;20500;-38
2022/12/18 02:20:31;;;;;;;81.70;22.80;;;;;;;;;;4801803;29;20145;-35
2022/12/18 02:22:59;;;;;;;59.38;19.83;;;;;;;;;;4787766;29;20073;-35
2022/12/18 02:25:43;;;;;;;95.97;24.40;;;;;;;;;;4787552;29;20603;-35
2022/12/18 02:28:13;;;;;;;86.90;23.77;;;;;;;;;;4804288;29;20104;-38
2022/12/18 02:30:40;;;;;;;81.22;20.88;;;;;;;;;;4804025;29;20055;-36
2022/12/18 02:33:08;;;;;;;69.30;20.98;;;;;;;;;;4787912;29;20039;-53
2022/12/18 02:35:35;;;;;;;64.00;19.23;;;;;;;;;;4788125;29;20050;-39
2022/12/18 02:38:02;;;;;;;77.45;22.63;;;;;;;;;;4787507;29;20504;-37
2022/12/18 02:40:32;;;;;;;72.22;21.35;;;;;;;;;;4787357;29;20500;-42
2022/12/18 02:43:17;;;;;;;70.13;20.83;;;;;;;;;;4788510;29;20137;-42
2022/12/18 02:45:53;;;;;;;71.60;21.25;;;;;;;;;;4788400;29;20055;-40
2022/12/18 02:48:22;;;;;;;71.68;22.15;;;;;;;;;;4785852;29;20616;-39
2022/12/18 02:51:07;;;;;;;84.00;23.25;;;;;;;;;;4787135;29;20111;-41
2022/12/18 02:53:43;;;;;;;70.57;22.38;;;;;;;;;;4784860;29;20040;-43
2022/12/18 02:56:21;;;;;;;63.85;19.65;;;;;;;;;;4787418;29;20066;-39
2022/12/18 02:59:09;;;;;;;73.85;21.35;;;;;;;;;;4801095;29;20053;-36
2022/12/18 03:01:41;;;;;;;77.88;21.65;;;;;;;;;;4785223;29;20054;-40
2022/12/18 03:04:18;;;;;;;72.13;20.30;;;;;;;;;;4787657;29;20047;-36
2022/12/18 03:06:48;;;;;;;76.50;21.10;;;;;;;;;;4803637;29;20053;-45
2022/12/18 03:09:21;;;;;;;74.28;19.38;;;;;;;;;;4784000;29;20054;-41
2022/12/18 03:14:49;;;;;;;81.93;19.45;;;;;;;;;;4798106;29;20055;-44
2022/12/18 03:17:17;;;;;;;82.10;22.67;;;;;;;;;;4780569;29;20051;-47
2022/12/18 03:19:45;;;;;;;92.60;23.13;;;;;;;;;;4784207;29;20417;-50
2022/12/18 03:22:13;;;;;;;87.18;20.98;;;;;;;;;;4784191;29;20044;-36
2022/12/18 03:24:45;;;;;;;67.95;18.55;;;;;;;;;;4784496;29;20557;-39
2022/12/18 03:27:14;;;;;;;57.10;17.42;;;;;;;;;;4783642;29;20114;-38
2022/12/18 03:29:47;;;;;;;62.25;18.75;;;;;;;;;;4783656;29;20067;-47
2022/12/18 03:32:26;;;;;;;60.20;17.92;;;;;;;;;;4783990;29;20069;-40
2022/12/18 03:34:55;;;;;;;74.25;17.88;;;;;;;;;;4780435;29;20066;-41
2022/12/18 03:37:22;;;;;;;73.35;18.27;;;;;;;;;;4783836;29;20055;-36
2022/12/18 03:39:50;;;;;;;60.72;17.33;;;;;;;;;;4785791;29;20090;-41
2022/12/18 03:42:40;;;;;;;66.35;17.15;;;;;;;;;;4783035;29;20079;-48
2022/12/18 03:45:16;;;;;;;47.40;16.55;;;;;;;;;;4797316;29;20048;-42
2022/12/18 03:47:55;;;;;;;60.15;18.35;;;;;;;;;;4781637;29;20057;-38
2022/12/18 03:50:33;;;;;;;64.35;17.58;;;;;;;;;;4781861;29;20096;-46
2022/12/18 03:53:04;;;;;;;55.58;17.30;;;;;;;;;;4780452;29;20057;-43
2022/12/18 03:55:33;;;;;;;55.05;15.32;;;;;;;;;;4783282;29;20051;-42
2022/12/18 03:58:04;;;;;;;71.80;17.17;;;;;;;;;;4783285;30;20058;-35
2022/12/18 04:00:41;;;;;;;64.43;17.23;;;;;;;;;;4783243;29;20105;-36
2022/12/18 04:03:09;;;;;;;78.22;17.50;;;;;;;;;;4783116;29;20143;-39
2022/12/18 04:05:42;;;;;;;62.50;16.52;;;;;;;;;;4784400;29;20059;-37
2022/12/18 04:08:08;;;;;;;55.42;15.23;;;;;;;;;;4786055;29;20412;-39
2022/12/18 04:10:39;;;;;;;77.82;16.83;;;;;;;;;;4783022;29;20047;-38
2022/12/18 04:13:06;;;;;;;46.67;14.52;;;;;;;;;;4787108;29;20498;-40
2022/12/18 04:15:35;;;;;;;45.28;15.23;;;;;;;;;;4786506;29;20135;-38
2022/12/18 04:18:03;;;;;;;58.85;17.90;;;;;;;;;;4785532;29;20135;-37
2022/12/18 04:20:37;;;;;;;51.53;15.18;;;;;;;;;;4782939;29;20055;-40
2022/12/18 04:23:04;;;;;;;64.65;18.15;;;;;;;;;;4785767;29;20047;-39
2022/12/18 04:25:31;;;;;;;55.63;17.60;;;;;;;;;;4785966;29;20047;-38
2022/12/18 04:28:06;;;;;;;51.88;15.50;;;;;;;;;;4802520;29;20050;-42
2022/12/18 04:30:34;;;;;;;62.85;16.10;;;;;;;;;;4815844;29;20133;-37
2022/12/18 04:33:01;;;;;;;59.05;15.38;;;;;;;;;;4785120;29;20146;-37
2022/12/18 04:35:30;;;;;;;59.80;15.65;;;;;;;;;;4785402;29;20050;-39
2022/12/18 04:37:56;;;;;;;61.05;16.25;;;;;;;;;;4802036;29;20551;-41
2022/12/18 04:40:23;;;;;;;72.18;14.88;;;;;;;;;;4801417;29;20535;-40
2022/12/18 04:42:50;;;;;;;58.08;15.32;;;;;;;;;;4785875;29;20046;-38
2022/12/18 04:45:17;;;;;;;72.72;16.30;;;;;;;;;;4801903;29;20053;-38
2022/12/18 04:47:44;;;;;;;54.47;14.70;;;;;;;;;;4801603;29;20051;-37
2022/12/18 04:50:10;;;;;;;64.78;15.98;;;;;;;;;;4785275;29;20071;-37
2022/12/18 04:52:37;;;;;;;61.97;15.45;;;;;;;;;;4799858;29;20129;-37
2022/12/18 04:55:03;;;;;;;61.17;17.08;;;;;;;;;;4802165;29;20047;-37
2022/12/18 04:57:30;;;;;;;55.65;15.30;;;;;;;;;;4801553;29;20118;-36
2022/12/18 04:59:56;;;;;;;49.47;14.00;;;;;;;;;;4784908;29;20058;-36
2022/12/18 05:02:23;;;;;;;47.67;13.88;;;;;;;;;;4801107;29;20070;-37
2022/12/18 05:04:49;;;;;;;61.08;15.80;;;;;;;;;;4801544;29;20051;-40
2022/12/18 05:07:16;;;;;;;86.20;17.65;;;;;;;;;;4801901;29;20079;-47
2022/12/18 05:09:42;;;;;;;50.38;13.18;;;;;;;;;;4801971;29;20061;-40
2022/12/18 05:12:10;;;;;;;49.25;13.48;;;;;;;;;;4800970;29;20043;-36
2022/12/18 05:14:37;;;;;;;61.70;14.35;;;;;;;;;;4801152;29;20458;-46
2022/12/18 05:17:03;;;;;;;62.75;14.35;;;;;;;;;;4801271;29;20507;-43
2022/12/18 05:19:29;;;;;;;54.63;13.25;;;;;;;;;;4801962;29;20062;-45
2022/12/18 05:21:56;;;;;;;40.75;12.50;;;;;;;;;;4801964;29;20047;-38
2022/12/18 05:24:23;;;;;;;55.33;14.05;;;;;;;;;;4801411;29;20043;-46
2022/12/18 05:26:50;;;;;;;67.75;16.15;;;;;;;;;;4784495;29;20084;-37
2022/12/18 05:29:16;;;;;;;52.78;14.00;;;;;;;;;;4801285;29;20050;-44
2022/12/18 05:31:43;;;;;;;59.60;14.75;;;;;;;;;;4801079;29;20054;-40
2022/12/18 05:34:10;;;;;;;51.90;13.95;;;;;;;;;;4802051;29;20416;-37
2022/12/18 05:36:36;;;;;;;53.15;13.82;;;;;;;;;;4806996;29;20127;-37
2022/12/18 05:39:03;;;;;;;55.65;14.45;;;;;;;;;;4803763;29;20393;-45
2022/12/18 05:41:31;;;;;;;47.47;14.68;;;;;;;;;;4806974;29;20166;-48
2022/12/18 05:43:58;;;;;;;44.28;14.10;;;;;;;;;;4807414;29;20472;-42
2022/12/18 05:46:24;;;;;;;77.85;16.73;;;;;;;;;;4806735;29;20428;-37
2022/12/18 05:48:51;;;;;;;57.13;15.32;;;;;;;;;;4807503;29;20046;-37
2022/12/18 05:51:19;;;;;;;49.08;13.25;;;;;;;;;;4807255;29;20519;-44
2022/12/18 05:53:45;;;;;;;56.95;14.70;;;;;;;;;;4806825;29;20051;-42
2022/12/18 05:56:14;;;;;;;54.17;13.73;;;;;;;;;;4807209;29;20176;-43
2022/12/18 05:58:41;;;;;;;57.88;14.55;;;;;;;;;;4807036;29;20408;-37
2022/12/18 06:01:12;;;;;;;52.15;14.00;;;;;;;;;;4807827;29;20050;-41
2022/12/18 06:03:39;;;;;;;52.83;13.77;;;;;;;;;;4807398;29;20138;-38
2022/12/18 06:06:16;;;;;;;45.25;13.95;;;;;;;;;;4807005;29;20085;-42
2022/12/18 06:08:43;;;;;;;55.03;14.95;;;;;;;;;;4804420;29;20059;-49
2022/12/18 06:11:13;;;;;;;62.78;15.25;;;;;;;;;;4806736;29;20042;-37
2022/12/18 06:13:39;;;;;;;79.32;16.05;;;;;;;;;;4807312;29;20092;-36
2022/12/18 06:16:06;;;;;;;53.05;14.73;;;;;;;;;;4808081;29;20153;-42
2022/12/18 06:18:33;;;;;;;43.35;13.60;;;;;;;;;;4806862;29;20338;-37
2022/12/18 06:21:00;;;;;;;56.70;14.27;;;;;;;;;;4806845;29;20062;-40
2022/12/18 06:23:27;;;;;;;66.03;16.77;;;;;;;;;;4806992;29;20058;-39
2022/12/18 06:25:53;;;;;;;62.95;15.52;;;;;;;;;;4806904;29;20047;-49
2022/12/18 06:28:20;;;;;;;78.97;19.00;;;;;;;;;;4806697;29;20076;-38
2022/12/18 06:30:48;;;;;;;66.72;15.98;;;;;;;;;;4807336;29;20058;-40
2022/12/18 06:33:14;;;;;;;56.55;15.00;;;;;;;;;;4790873;29;20055;-47
2022/12/18 06:35:41;;;;;;;62.00;17.75;;;;;;;;;;4803498;29;20054;-37
2022/12/18 06:38:08;;;;;;;54.88;16.63;;;;;;;;;;4807005;29;20039;-45
2022/12/18 06:40:36;;;;;;;65.18;16.42;;;;;;;;;;4806354;29;20039;-40
2022/12/18 06:43:02;;;;;;;61.47;16.75;;;;;;;;;;4807352;29;20058;-39
2022/12/18 06:45:29;;;;;;;57.38;14.98;;;;;;;;;;4806953;29;20058;-37
2022/12/18 06:47:55;;;;;;;51.97;16.20;;;;;;;;;;4803872;29;20051;-40
2022/12/18 06:50:22;;;;;;;68.65;17.45;;;;;;;;;;4803946;29;20484;-44
2022/12/18 06:52:49;;;;;;;70.90;19.17;;;;;;;;;;4803828;29;20066;-44
2022/12/18 06:55:15;;;;;;;88.32;20.15;;;;;;;;;;4803767;29;20051;-44
2022/12/18 06:57:42;;;;;;;72.25;20.35;;;;;;;;;;4804516;29;20732;-42
2022/12/18 07:00:09;;;;;;;55.88;18.52;;;;;;;;;;4803425;29;20054;-44
2022/12/18 07:02:35;;;;;;;63.58;18.40;;;;;;;;;;4803502;29;20039;-37
2022/12/18 07:05:02;;;;;;;74.88;19.33;;;;;;;;;;4803261;29;20155;-38
2022/12/18 07:07:36;;;;;;;59.28;15.98;;;;;;;;;;4803195;29;20062;-38
2022/12/18 07:10:03;;;;;;;52.60;15.40;;;;;;;;;;4804592;29;20094;-39
2022/12/18 07:12:29;;;;;;;84.43;22.77;;;;;;;;;;4803103;29;20050;-37
2022/12/18 07:14:55;;;;;;;77.30;24.15;;;;;;;;;;4803377;29;20051;-42
2022/12/18 07:17:22;;;;;;;79.53;22.13;;;;;;;;;;4803294;29;20051;-36
2022/12/18 07:19:48;;;;;;;74.50;21.05;;;;;;;;;;4803483;29;20039;-37
2022/12/18 07:22:15;;;;;;;75.00;22.25;;;;;;;;;;4803556;29;20046;-37
2022/12/18 07:24:41;;;;;;;73.93;21.45;;;;;;;;;;4803810;29;20089;-36
2022/12/18 07:27:08;;;;;;;89.70;25.27;;;;;;;;;;4802581;29;20051;-38
2022/12/18 07:29:35;;;;;;;70.68;18.20;;;;;;;;;;4803150;29;20058;-42
2022/12/18 07:32:03;;;;;;;50.25;16.33;;;;;;;;;;4803202;29;20558;-37
2022/12/18 07:34:29;;;;;;;69.78;16.85;;;;;;;;;;4803018;29;20066;-48
2022/12/18 07:36:56;;;;;;;61.17;17.52;;;;;;;;;;4803466;29;20050;-47
2022/12/18 07:39:22;;;;;;;54.45;16.48;;;;;;;;;;4803218;29;20053;-37
2022/12/18 07:42:30;;;;;;;69.03;17.60;;;;;;;;;;4798837;29;20054;-46
2022/12/18 07:44:38;;;;;;;58.03;17.15;;;;;;;;;;4803130;29;20080;-46
2022/12/18 07:47:05;;;;;;;54.83;16.67;;;;;;;;;;4802857;29;20057;-45
2022/12/18 07:49:37;;;;;;;60.92;16.77;;;;;;;;;;4802579;29;20055;-44
2022/12/18 07:52:04;;;;;;;63.95;17.45;;;;;;;;;;4803583;29;20419;-37
2022/12/18 07:54:30;;;;;;;73.13;17.83;;;;;;;;;;4802624;29;20100;-40
2022/12/18 07:56:56;;;;;;;64.13;18.38;;;;;;;;;;4801495;29;20419;-43
2022/12/18 07:59:23;;;;;;;69.88;19.05;;;;;;;;;;4801366;29;20107;-36
2022/12/18 08:01:49;;;;;;;67.20;18.02;;;;;;;;;;4802119;29;20058;-37
2022/12/18 08:04:16;;;;;;;70.22;17.38;;;;;;;;;;4802642;29;20058;-37
2022/12/18 08:06:43;;;;;;;66.70;17.70;;;;;;;;;;4803137;29;20047;-38
2022/12/18 08:09:13;;;;;;;64.50;17.65;;;;;;;;;;4802144;29;20063;-39
2022/12/18 08:11:40;;;;;;;54.53;17.23;;;;;;;;;;4797112;29;20412;-36
2022/12/18 08:14:06;;;;;;;70.40;19.55;;;;;;;;;;4802341;29;20038;-37
2022/12/18 08:16:33;;;;;;;101.72;30.15;;;;;;;;;;4801246;29;20121;-42
2022/12/18 08:19:00;;;;;;;110.05;34.65;;;;;;;;;;4802776;29;20064;-36
2022/12/18 08:21:27;;;;;;;119.95;35.78;;;;;;;;;;4801815;29;20047;-41
2022/12/18 08:23:55;;;;;;;102.57;28.00;;;;;;;;;;4801623;29;20043;-43
2022/12/18 08:26:22;;;;;;;68.38;21.65;;;;;;;;;;4801408;29;20039;-37
2022/12/18 08:28:49;;;;;;;86.97;21.88;;;;;;;;;;4801664;29;20043;-43
2022/12/18 08:31:16;;;;;;;73.70;19.45;;;;;;;;;;4802097;29;20049;-39
2022/12/18 08:33:42;;;;;;;70.13;18.17;;;;;;;;;;4801969;29;20039;-38
2022/12/18 08:36:09;;;;;;;59.13;17.65;;;;;;;;;;4801621;29;20108;-36
2022/12/18 08:38:36;;;;;;;82.72;21.23;;;;;;;;;;4801587;29;20512;-44
2022/12/18 08:41:06;;;;;;;71.85;20.95;;;;;;;;;;4800962;29;20047;-43
2022/12/18 08:46:19;;;;;;;84.03;24.13;;;;;;;;;;4800528;29;20519;-41
2022/12/18 08:48:46;;;;;;;97.28;24.73;;;;;;;;;;4801637;29;20057;-35
2022/12/18 08:51:13;;;;;;;81.65;25.48;;;;;;;;;;4801321;29;20045;-45
2022/12/18 08:53:39;;;;;;;64.90;21.02;;;;;;;;;;4797551;29;20110;-41
2022/12/18 08:56:07;;;;;;;76.05;21.15;;;;;;;;;;4801412;29;20054;-39
2022/12/18 08:58:33;;;;;;;96.90;26.40;;;;;;;;;;4801303;29;20043;-37
2022/12/18 09:01:01;;;;;;;78.25;25.13;;;;;;;;;;4802332;29;20111;-43
2022/12/18 09:03:28;;;;;;;71.65;23.83;;;;;;;;;;4801104;29;20126;-39
2022/12/18 09:05:54;;;;;;;86.88;26.88;;;;;;;;;;4801068;29;20074;-42
2022/12/18 09:08:21;;;;;;;84.22;24.25;;;;;;;;;;4800823;29;20054;-38
2022/12/18 09:10:48;;;;;;;96.38;25.50;;;;;;;;;;4796426;29;20053;-39
2022/12/18 09:13:16;;;;;;;90.15;24.67;;;;;;;;;;4801512;29;20419;-39
2022/12/18 09:15:49;;;;;;;252.00;40.13;;;;;;;;;;4796148;29;20043;-40
2022/12/18 09:18:17;;;;;;;84.63;25.27;;;;;;;;;;4799524;29;20054;-41
2022/12/18 09:20:43;;;;;;;99.35;26.75;;;;;;;;;;4800503;29;20050;-46
2022/12/18 09:23:10;;;;;;;101.00;30.60;;;;;;;;;;4796397;29;20111;-43
2022/12/18 09:25:37;;;;;;;102.93;30.67;;;;;;;;;;4796788;29;20038;-40
2022/12/18 09:28:14;;;;;;;92.13;28.98;;;;;;;;;;4801596;29;20066;-42
2022/12/18 09:30:42;;;;;;;102.47;31.13;;;;;;;;;;4783336;29;20050;-39
2022/12/18 09:33:09;;;;;;;104.13;29.58;;;;;;;;;;4780933;29;20149;-47
2022/12/18 09:35:36;;;;;;;113.30;30.55;;;;;;;;;;4800471;29;20115;-38
2022/12/18 09:38:03;;;;;;;95.38;27.80;;;;;;;;;;4799765;29;20121;-38
2022/12/18 09:40:34;;;;;;;110.85;30.33;;;;;;;;;;4799589;29;20054;-40
2022/12/18 09:43:02;;;;;;;106.03;29.80;;;;;;;;;;4801339;29;20093;-41
2022/12/18 09:45:34;;;;;;;100.75;30.23;;;;;;;;;;4800346;29;20070;-40
2022/12/18 09:48:01;;;;;;;108.15;31.65;;;;;;;;;;4800183;29;20043;-39
2022/12/18 09:50:37;;;;;;;115.68;31.80;;;;;;;;;;4800659;29;20563;-40
2022/12/18 09:53:06;;;;;;;104.97;30.20;;;;;;;;;;4800205;29;20103;-40
2022/12/18 09:55:36;;;;;;;117.10;31.90;;;;;;;;;;4799067;29;20050;-40
2022/12/18 09:58:11;;;;;;;109.80;32.08;;;;;;;;;;4784692;29;20587;-40
2022/12/18 10:00:38;;;;;;;98.60;31.95;;;;;;;;;;4800572;29;20050;-40
2022/12/18 10:03:12;;;;;;;103.57;32.45;;;;;;;;;;4799907;29;20458;-39
2022/12/18 10:05:38;;;;;;;125.07;33.70;;;;;;;;;;4797378;29;20050;-40
2022/12/18 10:08:20;;;;;;;115.85;33.20;;;;;;;;;;4783251;29;20055;-41
2022/12/18 10:10:48;;;;;;;116.78;36.33;;;;;;;;;;4796878;29;20412;-41
2022/12/18 10:13:29;;;;;;;125.72;33.80;;;;;;;;;;4800688;29;20055;-42
2022/12/18 10:16:08;;;;;;;118.50;32.20;;;;;;;;;;4800417;29;20504;-42
2022/12/18 10:18:50;;;;;;;113.60;33.60;;;;;;;;;;4799272;29;20131;-41
2022/12/18 10:21:19;;;;;;;118.97;33.58;;;;;;;;;;4798641;29;20039;-43
2022/12/18 10:24:09;;;;;;;128.80;33.25;;;;;;;;;;4803444;29;20039;-41
2022/12/18 10:26:35;;;;;;;114.60;33.10;;;;;;;;;;4800227;29;20059;-41
2022/12/18 10:29:04;;;;;;;121.28;33.22;;;;;;;;;;4802857;29;20051;-41
2022/12/18 10:31:31;;;;;;;123.93;35.67;;;;;;;;;;4803232;29;20898;-41
2022/12/18 10:33:58;;;;;;;110.97;36.40;;;;;;;;;;4803545;29;20392;-41
2022/12/18 10:36:24;;;;;;;116.30;35.50;;;;;;;;;;4802736;29;20053;-42
2022/12/18 10:38:51;;;;;;;119.30;33.78;;;;;;;;;;4802768;29;20129;-42
2022/12/18 10:41:18;;;;;;;101.70;32.40;;;;;;;;;;4802780;29;20042;-45
2022/12/18 10:43:47;;;;;;;125.63;32.50;;;;;;;;;;4802553;29;20039;-41
2022/12/18 10:46:15;;;;;;;107.53;32.00;;;;;;;;;;4803643;29;20133;-42
2022/12/18 10:48:48;;;;;;;115.50;34.42;;;;;;;;;;4802864;29;20043;-41
2022/12/18 10:51:26;;;;;;;113.93;32.80;;;;;;;;;;4795008;29;20063;-41
2022/12/18 10:53:59;;;;;;;108.38;34.28;;;;;;;;;;4802610;29;20058;-42
2022/12/18 10:56:27;;;;;;;107.95;32.72;;;;;;;;;;4802526;29;20054;-40
2022/12/18 10:58:58;;;;;;;111.13;31.80;;;;;;;;;;4802875;29;20055;-40
2022/12/18 11:01:25;;;;;;;117.47;30.63;;;;;;;;;;4803148;29;20141;-43
2022/12/18 11:03:52;;;;;;;98.93;29.67;;;;;;;;;;4803417;29;20047;-41
2022/12/18 11:06:25;;;;;;;106.45;29.23;;;;;;;;;;4800711;29;20121;-42
2022/12/18 11:09:06;;;;;;;98.07;30.20;;;;;;;;;;4802131;29;20062;-40
2022/12/18 11:11:39;;;;;;;96.78;29.45;;;;;;;;;;4799242;29;20145;-42
2022/12/18 11:14:18;;;;;;;93.22;29.52;;;;;;;;;;4802463;29;20480;-41
2022/12/18 11:16:46;;;;;;;93.88;27.25;;;;;;;;;;4802163;29;20050;-40
2022/12/18 11:19:34;;;;;;;132.70;31.15;;;;;;;;;;4802274;29;20054;-40
2022/12/18 11:22:02;;;;;;;85.85;27.65;;;;;;;;;;4803600;29;20058;-41
2022/12/18 11:24:28;;;;;;;87.45;27.33;;;;;;;;;;4802452;29;20043;-40
2022/12/18 11:26:57;;;;;;;102.22;29.70;;;;;;;;;;4801838;29;20047;-41
2022/12/18 11:29:39;;;;;;;97.57;29.92;;;;;;;;;;4803935;29;20403;-41
2022/12/18 11:32:14;;;;;;;116.18;30.00;;;;;;;;;;4795659;29;20080;-40
2022/12/18 11:34:42;;;;;;;109.97;30.00;;;;;;;;;;4801707;29;20058;-40
2022/12/18 11:37:09;;;;;;;90.63;28.20;;;;;;;;;;4787172;29;20135;-41
2022/12/18 11:39:36;;;;;;;84.78;26.30;;;;;;;;;;4802245;29;20496;-41
2022/12/18 11:42:08;;;;;;;74.15;25.35;;;;;;;;;;4802589;29;20802;-41
2022/12/18 11:44:54;;;;;;;100.25;29.92;;;;;;;;;;4800032;29;20502;-41
2022/12/18 11:47:37;;;;;;;81.35;25.23;;;;;;;;;;4799803;29;20053;-41
2022/12/18 11:50:11;;;;;;;87.03;25.98;;;;;;;;;;4802171;29;20504;-41
2022/12/18 11:52:39;;;;;;;96.80;28.33;;;;;;;;;;4802053;29;20121;-40
2022/12/18 11:55:25;;;;;;;93.80;28.77;;;;;;;;;;4803015;29;20126;-42
2022/12/18 11:58:01;;;;;;;83.53;26.15;;;;;;;;;;4802684;29;20111;-40
2022/12/18 12:00:28;;;;;;;98.72;33.05;;;;;;;;;;4802031;29;20047;-41
2022/12/18 12:02:54;;;;;;;115.28;31.23;;;;;;;;;;4800967;29;20056;-40
2022/12/18 12:05:27;;;;;;;133.52;42.63;;;;;;;;;;4801623;29;20035;-41
2022/12/18 12:07:57;;;;;;;95.07;31.00;;;;;;;;;;4799277;29;20153;-40
2022/12/18 12:10:24;;;;;;;98.80;31.35;;;;;;;;;;4802031;29;20670;-43
2022/12/18 12:12:59;;;;;;;120.82;32.05;;;;;;;;;;4802812;29;20230;-41
2022/12/18 12:15:35;;;;;;;113.28;31.67;;;;;;;;;;4800427;29;20054;-40
2022/12/18 12:18:13;;;;;;;108.13;30.20;;;;;;;;;;4801597;29;20054;-40
2022/12/18 12:20:39;;;;;;;119.57;34.17;;;;;;;;;;4798556;29;20057;-41
2022/12/18 12:23:13;;;;;;;95.78;30.55;;;;;;;;;;4801341;29;20046;-39
2022/12/18 12:25:45;;;;;;;132.65;42.28;;;;;;;;;;4800817;29;20047;-41
2022/12/18 12:28:20;;;;;;;97.78;30.17;;;;;;;;;;4802642;29;20073;-41
2022/12/18 12:31:02;;;;;;;122.22;32.60;;;;;;;;;;4802252;29;20103;-41
2022/12/18 12:33:59;;;;;;;115.03;33.45;;;;;;;;;;4800640;29;20133;-39
2022/12/18 12:36:35;;;;;;;111.55;33.75;;;;;;;;;;4779125;30;20063;-41
2022/12/18 12:39:05;;;;;;;101.07;31.98;;;;;;;;;;4781084;30;20051;-44
2022/12/18 12:44:22;;;;;;;99.20;32.60;;;;;;;;;;4777854;29;20070;-42
2022/12/18 12:46:49;;;;;;;116.35;36.20;;;;;;;;;;4780487;30;20079;-40
2022/12/18 12:49:17;;;;;;;92.63;32.38;;;;;;;;;;4782023;30;20051;-41
2022/12/18 12:51:45;;;;;;;105.57;33.83;;;;;;;;;;4781403;30;20051;-45
2022/12/18 12:54:17;;;;;;;120.25;34.13;;;;;;;;;;4780636;29;20641;-40
2022/12/18 12:56:59;;;;;;;103.50;35.45;;;;;;;;;;4780570;30;20130;-44
2022/12/18 12:59:28;;;;;;;102.35;33.42;;;;;;;;;;4779083;30;20586;-43
2022/12/18 13:02:16;;;;;;;90.13;29.90;;;;;;;;;;4780952;30;20047;-41
2022/12/18 13:04:49;;;;;;;100.40;30.50;;;;;;;;;;4780593;30;20055;-44
2022/12/18 13:07:23;;;;;;;88.43;27.20;;;;;;;;;;4779952;30;20055;-44
2022/12/18 13:10:08;;;;;;;93.03;30.67;;;;;;;;;;4779885;30;20139;-40
2022/12/18 13:15:23;;;;;;;90.13;31.05;;;;;;;;;;4780534;29;20077;-40
2022/12/18 13:18:13;;;;;;;92.88;31.58;;;;;;;;;;4783162;29;20066;-40
2022/12/18 13:20:41;;;;;;;122.97;34.60;;;;;;;;;;4779722;29;20063;-42
2022/12/18 13:23:23;;;;;;;116.55;34.65;;;;;;;;;;4783223;29;20044;-44
2022/12/18 13:25:57;;;;;;;119.97;34.85;;;;;;;;;;4779749;29;20517;-43
2022/12/18 13:28:32;;;;;;;115.82;34.20;;;;;;;;;;4783461;29;20055;-40
2022/12/18 13:31:00;;;;;;;93.88;32.25;;;;;;;;;;4783825;30;20062;-40
2022/12/18 13:33:29;;;;;;;95.70;32.40;;;;;;;;;;4781348;29;20087;-40
2022/12/18 13:36:09;;;;;;;85.85;29.65;;;;;;;;;;4783037;29;20050;-40
2022/12/18 13:38:40;;;;;;;109.45;33.28;;;;;;;;;;4783007;29;20587;-42
2022/12/18 13:41:07;;;;;;;104.68;32.55;;;;;;;;;;4779545;29;20563;-40
2022/12/18 13:43:37;;;;;;;110.03;34.58;;;;;;;;;;4782753;29;20054;-41
2022/12/18 13:46:04;;;;;;;99.70;36.13;;;;;;;;;;4783918;29;20182;-42
2022/12/18 13:48:36;;;;;;;103.70;33.58;;;;;;;;;;4782707;29;20054;-40
2022/12/18 13:51:05;;;;;;;110.50;35.92;;;;;;;;;;4779663;29;20055;-41
2022/12/18 13:53:41;;;;;;;114.47;35.95;;;;;;;;;;4783192;29;20035;-41
2022/12/18 13:56:09;;;;;;;112.70;37.20;;;;;;;;;;4783773;29;20513;-41
2022/12/18 13:58:35;;;;;;;328.13;72.60;;;;;;;;;;4786269;29;20149;-39
2022/12/18 14:01:04;;;;;;;129.38;40.08;;;;;;;;;;4787671;30;20054;-41
2022/12/18 14:03:31;;;;;;;114.30;34.72;;;;;;;;;;4786565;29;20129;-40
2022/12/18 14:06:16;;;;;;;131.05;38.88;;;;;;;;;;4785864;29;20100;-40
2022/12/18 14:08:43;;;;;;;135.18;41.60;;;;;;;;;;4789825;29;20051;-40
2022/12/18 14:11:18;;;;;;;125.45;37.92;;;;;;;;;;4803841;29;20052;-47
2022/12/18 14:13:47;;;;;;;124.20;38.53;;;;;;;;;;4803870;29;20057;-40
2022/12/18 14:16:14;;;;;;;115.65;37.42;;;;;;;;;;4804693;29;20058;-40
2022/12/18 14:18:55;;;;;;;126.35;37.53;;;;;;;;;;4803724;29;20050;-45
2022/12/18 14:21:32;;;;;;;115.45;37.78;;;;;;;;;;4803787;29;20108;-40
2022/12/18 14:24:14;;;;;;;128.85;40.83;;;;;;;;;;4804316;29;20491;-44
2022/12/18 14:26:44;;;;;;;154.60;41.13;;;;;;;;;;4802934;29;20038;-40
2022/12/18 14:29:30;;;;;;;129.30;38.67;;;;;;;;;;4803774;29;20045;-40
2022/12/18 14:32:04;;;;;;;112.72;38.92;;;;;;;;;;4803826;29;20055;-41
2022/12/18 14:34:31;;;;;;;139.40;43.40;;;;;;;;;;4803659;29;20088;-41
2022/12/18 14:36:57;;;;;;;119.75;37.08;;;;;;;;;;4803335;29;20497;-40
2022/12/18 14:39:25;;;;;;;129.25;39.08;;;;;;;;;;4803481;29;20055;-41
2022/12/18 14:41:53;;;;;;;155.88;44.53;;;;;;;;;;4802101;29;20514;-40